Latest Weather Observations for Port Kembla Harbour

IDN60801

Issued at 4:32 pm EDT Sunday 11 December 2016 (issued every 30 minutes, with the page automatically refreshed every 10 minutes)

About weather observations | Map of weather stations | Latest weather observations for NSW | Other Formats
Station Details ID: 068253 Name: PORT KEMBLA NTC AWS Lat: -34.47 Lon: 150.91 Height: 0.0 m
Data from the previous 72 hours. | See also: Recent months for locations in New South Wales
Date/Time
EDT
Temp
°C
App
Temp
°C
Dew
Point
°C
Rel
Hum
%
Delta-T
°C
Wind Press
QNH
hPa
Press
MSL
hPa
Rain since
9am
mm
Dir  Spd
km/h
Gust
km/h
Spd
kts
Gust
kts
11/04:30pm 22.4 - - - - SE 11 22 6 12 1020.6 1020.6 -
11/04:00pm 21.9 - - - - SE 15 22 8 12 1020.7 1020.7 -
11/03:30pm 22.3 - - - - SE 15 22 8 12 1020.8 1020.8 -
11/03:00pm 22.2 - - - - SE 15 28 8 15 1021.1 1021.1 -
11/02:30pm 22.1 - - - - SE 17 24 9 13 1021.2 1021.2 -
11/02:00pm 22.1 - - - - SE 17 24 9 13 1021.3 1021.3 -
11/01:30pm 21.6 - - - - SE 15 22 8 12 1021.3 1021.3 -
11/01:00pm 21.7 - - - - SE 15 22 8 12 1021.4 1021.4 -
11/12:30pm 21.4 - - - - SE 15 22 8 12 1021.6 1021.6 -
11/12:00pm 21.4 - - - - SE 15 22 8 12 1021.6 1021.6 -
11/11:30am 21.2 - - - - SE 13 19 7 10 1021.8 1021.8 -
11/11:00am 20.7 - - - - SE 13 17 7 9 1021.8 1021.8 -
11/10:30am 21.2 - - - - SE 11 19 6 10 1022.0 1022.0 -
11/10:00am 21.1 - - - - SSE 13 26 7 14 1021.9 1021.9 -
11/09:30am 20.4 - - - - SE 11 17 6 9 1021.8 1021.8 -
11/09:00am 20.3 - - - - SE 13 19 7 10 1021.8 1021.8 -
11/08:30am 20.3 - - - - SE 9 11 5 6 1021.7 1021.7 -
11/08:00am 20.9 - - - - SE 6 9 3 5 1021.5 1021.5 -
11/07:30am 20.0 - - - - SW 6 7 3 4 1021.2 1021.2 -
11/07:00am 19.4 - - - - SW 7 9 4 5 1021.0 1021.0 -
11/06:30am 19.3 - - - - WSW 6 7 3 4 1020.7 1020.7 -
11/06:00am 19.9 - - - - NW 9 11 5 6 1020.5 1020.5 -
11/05:30am 19.9 - - - - NW 7 9 4 5 1020.2 1020.2 -
11/05:00am 19.9 - - - - NW 6 9 3 5 1019.9 1019.9 -
11/04:30am 19.8 - - - - NNW 4 6 2 3 1019.7 1019.7 -
11/04:00am 19.8 - - - - NNW 7 11 4 6 1019.7 1019.7 -
11/03:30am 20.0 - - - - NNW 9 15 5 8 1019.7 1019.7 -
11/03:00am 20.2 - - - - NNW 11 17 6 9 1019.9 1019.9 -
11/02:30am 20.2 - - - - N 9 17 5 9 1020.1 1020.1 -
11/02:00am 20.4 - - - - N 13 19 7 10 1020.4 1020.4 -
11/01:30am 20.2 - - - - NNE 17 24 9 13 1020.6 1020.6 -
11/01:00am 20.4 - - - - NNE 19 26 10 14 1020.8 1020.8 -
11/12:30am 20.3 - - - - NNE 20 26 11 14 1021.0 1021.0 -
11/12:00am 20.2 - - - - NE 20 28 11 15 1021.2 1021.2 -
 
Date/Time
EDT
Temp
°C
App
Temp
°C
Dew
Point
°C
Rel
Hum
%
Delta-T
°C
Wind Press
QNH
hPa
Press
MSL
hPa
Rain since
9am
mm
Dir  Spd
km/h
Gust
km/h
Spd
kts
Gust
kts
10/11:30pm 20.2 - - - - NE 22 32 12 17 1021.3 1021.3 -
10/11:00pm 19.9 - - - - NNE 20 28 11 15 1021.4 1021.4 -
10/10:30pm 20.5 - - - - NE 20 28 11 15 1021.5 1021.5 -
10/10:00pm 20.5 - - - - NE 20 24 11 13 1021.5 1021.5 -
10/09:30pm 20.4 - - - - NE 20 26 11 14 1021.5 1021.5 -
10/09:00pm 20.3 - - - - NE 20 28 11 15 1021.1 1021.1 -
10/08:30pm 20.3 - - - - NE 19 24 10 13 1020.9 1020.9 -
10/08:00pm 20.3 - - - - NE 20 26 11 14 1020.5 1020.5 -
10/07:30pm 20.2 - - - - ENE 17 26 9 14 1020.0 1020.0 -
10/07:00pm 20.1 - - - - NE 19 28 10 15 1019.5 1019.5 -
10/06:30pm 20.3 - - - - NE 20 28 11 15 1019.3 1019.3 -
10/06:00pm 20.1 - - - - NE 20 30 11 16 1019.2 1019.2 -
10/05:30pm 20.2 - - - - NE 20 30 11 16 1019.1 1019.1 -
10/05:00pm 20.3 - - - - NE 17 24 9 13 1019.0 1019.0 -
10/04:30pm 20.4 - - - - ENE 17 24 9 13 1019.3 1019.3 -
10/04:00pm 20.3 - - - - NE 17 24 9 13 1019.6 1019.6 -
10/03:30pm 20.2 - - - - ENE 19 28 10 15 1019.9 1019.9 -
10/03:00pm 20.0 - - - - ENE 19 28 10 15 1020.3 1020.3 -
10/02:30pm 20.0 - - - - ENE 17 22 9 12 1020.6 1020.6 -
10/02:00pm 20.2 - - - - ENE 15 24 8 13 1020.9 1020.9 -
10/01:30pm 19.8 - - - - ENE 15 20 8 11 1021.2 1021.2 -
10/01:00pm 19.6 - - - - ENE 15 22 8 12 1021.4 1021.4 -
10/12:30pm 19.3 - - - - ENE 15 20 8 11 1021.5 1021.5 -
10/12:00pm 19.3 - - - - ENE 11 20 6 11 1021.7 1021.7 -
10/11:30am 19.5 - - - - E 9 17 5 9 1021.9 1021.9 -
10/11:00am 19.0 - - - - ESE 9 17 5 9 1022.1 1022.1 -
10/10:30am 18.7 - - - - ESE 11 17 6 9 1022.1 1022.1 -
10/10:00am 18.7 - - - - ESE 11 17 6 9 1022.2 1022.2 -
10/09:30am 18.6 - - - - ESE 11 15 6 8 1022.2 1022.2 -
10/09:00am 18.8 - - - - ESE 9 13 5 7 1022.2 1022.2 -
10/08:30am 18.5 - - - - SE 9 13 5 7 1022.1 1022.1 -
10/08:00am 18.4 - - - - SE 9 15 5 8 1021.9 1021.9 -
10/07:30am 18.1 - - - - SW 9 15 5 8 1021.7 1021.7 -
10/07:00am 17.9 - - - - SSW 6 9 3 5 1021.2 1021.2 -
10/06:30am 17.1 - - - - WSW 7 11 4 6 1020.8 1020.8 -
10/06:00am 16.9 - - - - SW 7 11 4 6 1020.4 1020.4 -
10/05:30am 16.4 - - - - WSW 7 9 4 5 1020.0 1020.0 -
10/05:00am 17.4 - - - - WSW 6 7 3 4 1019.6 1019.6 -
10/04:30am 17.6 - - - - SW 6 7 3 4 1019.3 1019.3 -
10/04:00am 17.9 - - - - SSW 4 7 2 4 1019.3 1019.3 -
10/03:30am 18.0 - - - - SSE 2 6 1 3 1019.1 1019.1 -
10/03:00am 18.1 - - - - W 4 6 2 3 1018.9 1018.9 -
10/02:30am 17.9 - - - - W 4 6 2 3 1018.8 1018.8 -
10/02:00am 17.9 - - - - WSW 9 11 5 6 1018.8 1018.8 -
10/01:30am 17.9 - - - - W 7 9 4 5 1018.7 1018.7 -
10/01:00am 17.9 - - - - W 9 11 5 6 1018.8 1018.8 -
10/12:30am 17.9 - - - - WSW 9 13 5 7 1018.7 1018.7 -
10/12:00am 18.0 - - - - WSW 11 13 6 7 1018.8 1018.8 -
 
Date/Time
EDT
Temp
°C
App
Temp
°C
Dew
Point
°C
Rel
Hum
%
Delta-T
°C
Wind Press
QNH
hPa
Press
MSL
hPa
Rain since
9am
mm
Dir  Spd
km/h
Gust
km/h
Spd
kts
Gust
kts
09/11:30pm 18.7 - - - - SSE 9 17 5 9 1018.5 1018.5 -
09/11:00pm 18.8 - - - - SSE 7 13 4 7 1018.2 1018.2 -
09/10:30pm 18.8 - - - - SE 13 20 7 11 1018.0 1018.0 -
09/10:00pm 18.7 - - - - SE 13 22 7 12 1017.6 1017.6 -
09/09:30pm 19.0 - - - - SSE 9 17 5 9 1017.3 1017.3 -
09/09:00pm 18.7 - - - - SE 15 24 8 13 1016.8 1016.8 -
09/08:30pm 18.6 - - - - SSE 15 24 8 13 1016.4 1016.4 -
09/08:00pm 19.0 - - - - SSE 11 20 6 11 1015.7 1015.7 -
09/07:30pm 19.3 - - - - SSE 11 22 6 12 1015.2 1015.2 -
09/07:00pm 19.5 - - - - SSE 13 24 7 13 1014.4 1014.4 -
09/06:30pm 20.3 - - - - SSE 13 22 7 12 1013.6 1013.6 -
09/06:00pm 20.2 - - - - SE 15 24 8 13 1013.0 1013.0 -
09/05:30pm 20.0 - - - - SE 17 22 9 12 1012.4 1012.4 -
09/05:00pm 19.6 - - - - SE 17 24 9 13 1011.7 1011.7 -
09/04:30pm 19.7 - - - - SE 17 24 9 13 1011.3 1011.3 -
09/04:00pm 19.7 - - - - SE 17 24 9 13 1010.9 1010.9 -
09/03:30pm 19.5 - - - - SE 20 28 11 15 1010.4 1010.4 -
09/03:00pm 19.5 - - - - SE 19 24 10 13 1010.0 1010.0 -
09/02:30pm 19.3 - - - - SE 22 28 12 15 1009.7 1009.7 -
09/02:00pm 19.4 - - - - SE 22 33 12 18 1009.6 1009.6 -
09/01:30pm 19.8 - - - - SE 24 35 13 19 1009.4 1009.4 -
09/01:09pm 22.7 - - - - WSW 28 46 15 25 1009.2 1009.2 -
09/01:00pm 22.8 - - - - WSW 30 46 16 25 1009.0 1009.0 -
09/12:31pm 22.9 - - - - WSW 28 52 15 28 1008.9 1008.9 -
09/12:30pm 22.8 - - - - WSW 28 43 15 23 1008.8 1008.8 -
09/12:02pm 22.7 - - - - W 35 57 19 31 1008.7 1008.7 -
09/12:00pm 21.9 - - - - W 33 52 18 28 1008.6 1008.6 -
09/11:30am 21.8 - - - - WSW 33 57 18 31 1008.5 1008.5 -
09/11:11am 22.1 - - - - WSW 33 56 18 30 1008.3 1008.3 -
09/11:00am 21.9 - - - - W 39 54 21 29 1008.1 1008.1 -
09/10:41am 22.2 - - - - W 33 54 18 29 1007.9 1007.9 -
09/10:30am 21.5 - - - - W 33 50 18 27 1007.7 1007.7 -
09/10:00am 21.0 - - - - W 35 48 19 26 1007.5 1007.5 -
09/09:30am 20.8 - - - - W 39 54 21 29 1007.4 1007.4 -
09/09:00am 20.1 - - - - W 33 52 18 28 1007.0 1007.0 -
09/08:52am 20.0 - - - - W 30 50 16 27 1007.1 1007.1 -
09/08:30am 19.4 - - - - W 33 50 18 27 1006.8 1006.8 -
09/08:00am 18.8 - - - - W 39 54 21 29 1006.2 1006.2 -
09/07:47am 18.5 - - - - W 41 63 22 34 1006.1 1006.1 -
09/07:30am 18.3 - - - - W 39 52 21 28 1005.8 1005.8 -
09/07:08am 17.8 - - - - WNW 41 59 22 32 1005.4 1005.4 -
09/07:00am 17.6 - - - - WNW 39 54 21 29 1005.6 1005.6 -
09/06:30am 17.7 - - - - W 28 43 15 23 1005.5 1005.5 -
09/06:00am 17.8 - - - - W 26 37 14 20 1005.4 1005.4 -
09/05:30am 18.0 - - - - W 22 28 12 15 1005.1 1005.1 -
09/05:00am 18.4 - - - - WSW 15 26 8 14 1004.6 1004.6 -
09/04:30am 18.8 - - - - W 13 17 7 9 1003.9 1003.9 -
09/04:00am 19.1 - - - - WSW 22 33 12 18 1003.5 1003.5 -

Other Formats:

Comma delimited format used in spreadsheet applications
http://www.bom.gov.au/fwo/IDN60801/IDN60801.95745.axf

JavaScript Object Notation format (JSON) in row-major order
http://www.bom.gov.au/fwo/IDN60801/IDN60801.95745.json